sensor_id;sensor_type;location;lat;lon;timestamp;pressure;altitude;pressure_sealevel;temperature;humidity
61618;BME280;47518;51.776;9.370;2023-06-14T00:00:38;100261.66;;;16.44;50.82
61618;BME280;47518;51.776;9.370;2023-06-14T00:03:07;100247.13;;;16.30;51.03
61618;BME280;47518;51.776;9.370;2023-06-14T00:05:35;100254.16;;;16.00;52.10
61618;BME280;47518;51.776;9.370;2023-06-14T00:08:06;100252.88;;;15.43;54.52
61618;BME280;47518;51.776;9.370;2023-06-14T00:10:34;100251.19;;;15.29;54.07
61618;BME280;47518;51.776;9.370;2023-06-14T00:13:01;100258.78;;;15.46;54.19
61618;BME280;47518;51.776;9.370;2023-06-14T00:15:27;100256.94;;;15.67;53.37
61618;BME280;47518;51.776;9.370;2023-06-14T00:17:53;100252.91;;;15.69;52.86
61618;BME280;47518;51.776;9.370;2023-06-14T00:20:20;100244.69;;;15.56;53.51
61618;BME280;47518;51.776;9.370;2023-06-14T00:22:45;100249.31;;;15.62;54.21
61618;BME280;47518;51.776;9.370;2023-06-14T00:25:14;100249.53;;;15.74;53.68
61618;BME280;47518;51.776;9.370;2023-06-14T00:27:39;100247.41;;;15.43;54.24
61618;BME280;47518;51.776;9.370;2023-06-14T00:30:05;100255.34;;;15.05;56.23
61618;BME280;47518;51.776;9.370;2023-06-14T00:32:30;100256.41;;;15.04;55.78
61618;BME280;47518;51.776;9.370;2023-06-14T00:34:56;100260.81;;;15.05;57.54
61618;BME280;47518;51.776;9.370;2023-06-14T00:37:21;100276.03;;;15.27;55.98
61618;BME280;47518;51.776;9.370;2023-06-14T00:39:46;100271.00;;;15.31;55.49
61618;BME280;47518;51.776;9.370;2023-06-14T00:42:23;100269.94;;;15.32;56.26
61618;BME280;47518;51.776;9.370;2023-06-14T00:44:48;100272.88;;;15.37;55.78
61618;BME280;47518;51.776;9.370;2023-06-14T00:47:13;100277.53;;;15.43;55.33
61618;BME280;47518;51.776;9.370;2023-06-14T00:49:39;100272.28;;;15.28;56.34
61618;BME280;47518;51.776;9.370;2023-06-14T00:52:04;100269.94;;;15.18;57.11
61618;BME280;47518;51.776;9.370;2023-06-14T00:54:36;100275.13;;;15.00;57.13
61618;BME280;47518;51.776;9.370;2023-06-14T00:57:02;100275.81;;;15.09;56.33
61618;BME280;47518;51.776;9.370;2023-06-14T00:59:27;100270.69;;;14.93;57.14
61618;BME280;47518;51.776;9.370;2023-06-14T01:01:52;100263.28;;;14.80;57.81
61618;BME280;47518;51.776;9.370;2023-06-14T01:04:28;100277.06;;;14.58;58.12
61618;BME280;47518;51.776;9.370;2023-06-14T01:07:07;100269.13;;;14.29;59.52
61618;BME280;47518;51.776;9.370;2023-06-14T01:09:58;100262.75;;;14.22;59.83
61618;BME280;47518;51.776;9.370;2023-06-14T01:12:31;100270.09;;;14.15;60.14
61618;BME280;47518;51.776;9.370;2023-06-14T01:15:01;100269.69;;;14.18;59.95
61618;BME280;47518;51.776;9.370;2023-06-14T01:17:28;100273.59;;;14.02;59.58
61618;BME280;47518;51.776;9.370;2023-06-14T01:19:58;100270.09;;;13.87;60.93
61618;BME280;47518;51.776;9.370;2023-06-14T01:22:26;100273.78;;;14.00;60.46
61618;BME280;47518;51.776;9.370;2023-06-14T01:24:52;100269.81;;;14.03;60.56
61618;BME280;47518;51.776;9.370;2023-06-14T01:27:23;100268.69;;;13.91;60.94
61618;BME280;47518;51.776;9.370;2023-06-14T01:29:51;100279.38;;;14.20;59.58
61618;BME280;47518;51.776;9.370;2023-06-14T01:32:21;100268.84;;;14.17;59.36
61618;BME280;47518;51.776;9.370;2023-06-14T01:34:48;100270.72;;;13.82;61.23
61618;BME280;47518;51.776;9.370;2023-06-14T01:37:13;100264.75;;;13.72;61.17
61618;BME280;47518;51.776;9.370;2023-06-14T01:39:45;100263.13;;;13.78;62.16
61618;BME280;47518;51.776;9.370;2023-06-14T01:42:12;100261.91;;;13.87;61.44
61618;BME280;47518;51.776;9.370;2023-06-14T01:44:39;100275.13;;;13.83;61.67
61618;BME280;47518;51.776;9.370;2023-06-14T01:47:05;100273.78;;;13.72;61.70
61618;BME280;47518;51.776;9.370;2023-06-14T01:49:34;100262.66;;;13.74;62.19
61618;BME280;47518;51.776;9.370;2023-06-14T01:52:00;100266.72;;;13.57;62.40
61618;BME280;47518;51.776;9.370;2023-06-14T01:54:28;100270.44;;;13.49;63.28
61618;BME280;47518;51.776;9.370;2023-06-14T01:56:54;100269.53;;;13.42;62.89
61618;BME280;47518;51.776;9.370;2023-06-14T01:59:22;100270.25;;;13.29;63.24
61618;BME280;47518;51.776;9.370;2023-06-14T02:01:48;100276.81;;;13.35;63.51
61618;BME280;47518;51.776;9.370;2023-06-14T02:04:33;100272.94;;;13.44;63.05
61618;BME280;47518;51.776;9.370;2023-06-14T02:06:59;100272.84;;;13.59;62.41
61618;BME280;47518;51.776;9.370;2023-06-14T02:09:25;100285.13;;;13.69;61.63
61618;BME280;47518;51.776;9.370;2023-06-14T02:11:50;100276.38;;;13.81;61.23
61618;BME280;47518;51.776;9.370;2023-06-14T02:14:16;100274.66;;;13.52;62.60
61618;BME280;47518;51.776;9.370;2023-06-14T02:16:42;100271.56;;;13.33;63.29
61618;BME280;47518;51.776;9.370;2023-06-14T02:19:19;100273.38;;;13.48;63.16
61618;BME280;47518;51.776;9.370;2023-06-14T02:21:47;100280.75;;;13.54;62.61
61618;BME280;47518;51.776;9.370;2023-06-14T02:24:16;100277.25;;;13.60;62.47
61618;BME280;47518;51.776;9.370;2023-06-14T02:26:41;100287.75;;;13.56;61.87
61618;BME280;47518;51.776;9.370;2023-06-14T02:29:07;100275.25;;;13.47;62.34
61618;BME280;47518;51.776;9.370;2023-06-14T02:31:35;100286.69;;;13.36;62.70
61618;BME280;47518;51.776;9.370;2023-06-14T02:34:01;100287.34;;;13.38;62.67
61618;BME280;47518;51.776;9.370;2023-06-14T02:36:27;100292.59;;;13.39;62.19
61618;BME280;47518;51.776;9.370;2023-06-14T02:38:55;100279.59;;;13.41;62.42
61618;BME280;47518;51.776;9.370;2023-06-14T02:41:24;100287.53;;;13.36;62.76
61618;BME280;47518;51.776;9.370;2023-06-14T02:43:49;100289.75;;;13.48;61.75
61618;BME280;47518;51.776;9.370;2023-06-14T02:46:15;100300.88;;;13.25;63.32
61618;BME280;47518;51.776;9.370;2023-06-14T02:48:40;100305.88;;;13.21;62.83
61618;BME280;47518;51.776;9.370;2023-06-14T02:51:09;100292.22;;;13.21;62.75
61618;BME280;47518;51.776;9.370;2023-06-14T02:53:35;100297.69;;;13.21;62.42
61618;BME280;47518;51.776;9.370;2023-06-14T02:56:01;100298.78;;;13.27;62.72
61618;BME280;47518;51.776;9.370;2023-06-14T02:58:29;100301.72;;;13.47;61.97
61618;BME280;47518;51.776;9.370;2023-06-14T03:00:54;100301.72;;;13.47;62.69
61618;BME280;47518;51.776;9.370;2023-06-14T03:03:19;100304.66;;;13.45;62.19
61618;BME280;47518;51.776;9.370;2023-06-14T03:05:49;100311.69;;;13.33;62.61
61618;BME280;47518;51.776;9.370;2023-06-14T03:08:15;100307.56;;;13.22;62.93
61618;BME280;47518;51.776;9.370;2023-06-14T03:10:45;100304.00;;;13.07;64.48
61618;BME280;47518;51.776;9.370;2023-06-14T03:13:14;100312.81;;;12.88;64.25
61618;BME280;47518;51.776;9.370;2023-06-14T03:15:46;100318.28;;;12.73;64.98
61618;BME280;47518;51.776;9.370;2023-06-14T03:18:13;100318.47;;;12.71;66.17
61618;BME280;47518;51.776;9.370;2023-06-14T03:20:40;100315.75;;;12.86;64.80
61618;BME280;47518;51.776;9.370;2023-06-14T03:23:06;100319.41;;;12.78;65.13
61618;BME280;47518;51.776;9.370;2023-06-14T03:25:31;100314.22;;;12.83;65.03
61618;BME280;47518;51.776;9.370;2023-06-14T03:27:58;100316.59;;;12.87;65.40
61618;BME280;47518;51.776;9.370;2023-06-14T03:30:23;100319.50;;;12.85;65.19
61618;BME280;47518;51.776;9.370;2023-06-14T03:32:51;100316.63;;;12.57;66.27
61618;BME280;47518;51.776;9.370;2023-06-14T03:35:18;100326.09;;;12.61;65.66
61618;BME280;47518;51.776;9.370;2023-06-14T03:37:44;100326.97;;;12.47;67.16
61618;BME280;47518;51.776;9.370;2023-06-14T03:40:12;100328.56;;;12.41;67.27
61618;BME280;47518;51.776;9.370;2023-06-14T03:42:37;100328.19;;;12.30;65.81
61618;BME280;47518;51.776;9.370;2023-06-14T03:45:03;100332.16;;;12.42;65.85
61618;BME280;47518;51.776;9.370;2023-06-14T03:47:29;100317.00;;;12.54;67.03
61618;BME280;47518;51.776;9.370;2023-06-14T03:49:54;100328.53;;;12.71;65.87
61618;BME280;47518;51.776;9.370;2023-06-14T03:52:20;100329.69;;;12.76;66.01
61618;BME280;47518;51.776;9.370;2023-06-14T03:54:47;100340.34;;;12.93;65.16
61618;BME280;47518;51.776;9.370;2023-06-14T03:57:12;100347.41;;;13.02;64.41
61618;BME280;47518;51.776;9.370;2023-06-14T03:59:38;100350.94;;;13.17;64.38
61618;BME280;47518;51.776;9.370;2023-06-14T04:02:07;100354.53;;;13.32;65.04
61618;BME280;47518;51.776;9.370;2023-06-14T04:04:35;100354.06;;;13.14;63.91
61618;BME280;47518;51.776;9.370;2023-06-14T04:07:01;100343.69;;;12.88;64.26
61618;BME280;47518;51.776;9.370;2023-06-14T04:09:29;100350.88;;;12.96;65.52
61618;BME280;47518;51.776;9.370;2023-06-14T04:11:57;100351.66;;;12.90;66.40
61618;BME280;47518;51.776;9.370;2023-06-14T04:14:34;100349.69;;;12.98;66.72
61618;BME280;47518;51.776;9.370;2023-06-14T04:17:00;100341.00;;;13.09;65.33
61618;BME280;47518;51.776;9.370;2023-06-14T04:19:25;100348.59;;;13.14;65.23
61618;BME280;47518;51.776;9.370;2023-06-14T04:21:54;100352.81;;;13.17;65.60
61618;BME280;47518;51.776;9.370;2023-06-14T04:24:19;100355.91;;;13.43;65.93
61618;BME280;47518;51.776;9.370;2023-06-14T04:26:45;100360.63;;;13.34;66.54
61618;BME280;47518;51.776;9.370;2023-06-14T04:29:14;100370.44;;;13.50;64.88
61618;BME280;47518;51.776;9.370;2023-06-14T04:31:41;100363.88;;;13.45;64.20
61618;BME280;47518;51.776;9.370;2023-06-14T04:34:07;100376.63;;;13.37;64.56
61618;BME280;47518;51.776;9.370;2023-06-14T04:36:36;100370.97;;;13.60;65.12
61618;BME280;47518;51.776;9.370;2023-06-14T04:39:03;100375.19;;;13.63;64.96
61618;BME280;47518;51.776;9.370;2023-06-14T04:41:38;100379.38;;;13.80;64.50
61618;BME280;47518;51.776;9.370;2023-06-14T04:44:03;100376.97;;;13.70;65.52
61618;BME280;47518;51.776;9.370;2023-06-14T04:46:28;100388.47;;;13.87;65.37
61618;BME280;47518;51.776;9.370;2023-06-14T04:48:55;100389.75;;;14.13;64.90
61618;BME280;47518;51.776;9.370;2023-06-14T04:51:20;100381.69;;;14.32;63.38
61618;BME280;47518;51.776;9.370;2023-06-14T04:53:48;100382.63;;;14.74;63.69
61618;BME280;47518;51.776;9.370;2023-06-14T04:56:14;100385.31;;;15.09;63.04
61618;BME280;47518;51.776;9.370;2023-06-14T04:58:40;100382.50;;;15.43;62.04
61618;BME280;47518;51.776;9.370;2023-06-14T05:01:05;100392.59;;;15.43;58.81
61618;BME280;47518;51.776;9.370;2023-06-14T05:03:36;100392.94;;;15.74;56.36
61618;BME280;47518;51.776;9.370;2023-06-14T05:06:16;100384.50;;;16.02;55.52
61618;BME280;47518;51.776;9.370;2023-06-14T05:08:42;100387.47;;;16.14;54.07
61618;BME280;47518;51.776;9.370;2023-06-14T05:11:07;100394.00;;;16.46;53.47
61618;BME280;47518;51.776;9.370;2023-06-14T05:13:33;100393.94;;;16.66;52.51
61618;BME280;47518;51.776;9.370;2023-06-14T05:15:59;100399.03;;;16.82;51.81
61618;BME280;47518;51.776;9.370;2023-06-14T05:18:25;100395.56;;;17.07;51.70
61618;BME280;47518;51.776;9.370;2023-06-14T05:20:51;100389.72;;;17.35;51.44
61618;BME280;47518;51.776;9.370;2023-06-14T05:23:16;100387.41;;;17.38;51.06
61618;BME280;47518;51.776;9.370;2023-06-14T05:25:43;100403.13;;;17.63;50.18
61618;BME280;47518;51.776;9.370;2023-06-14T05:28:09;100397.25;;;17.53;51.03
61618;BME280;47518;51.776;9.370;2023-06-14T05:30:43;100396.09;;;17.67;50.22
61618;BME280;47518;51.776;9.370;2023-06-14T05:33:15;100386.78;;;17.68;49.96
61618;BME280;47518;51.776;9.370;2023-06-14T05:35:46;100396.13;;;17.98;49.81
61618;BME280;47518;51.776;9.370;2023-06-14T05:38:15;100397.25;;;18.16;49.29
61618;BME280;47518;51.776;9.370;2023-06-14T05:40:48;100392.56;;;18.23;48.88
61618;BME280;47518;51.776;9.370;2023-06-14T05:43:13;100403.72;;;18.28;48.22
61618;BME280;47518;51.776;9.370;2023-06-14T05:45:40;100390.28;;;18.13;48.68
61618;BME280;47518;51.776;9.370;2023-06-14T05:48:05;100405.81;;;18.07;48.56
61618;BME280;47518;51.776;9.370;2023-06-14T05:50:31;100403.22;;;18.37;47.84
61618;BME280;47518;51.776;9.370;2023-06-14T05:52:56;100405.69;;;18.46;47.53
61618;BME280;47518;51.776;9.370;2023-06-14T05:55:22;100403.00;;;18.64;47.98
61618;BME280;47518;51.776;9.370;2023-06-14T05:57:47;100398.94;;;18.85;46.82
61618;BME280;47518;51.776;9.370;2023-06-14T06:00:14;100408.16;;;18.79;46.87
61618;BME280;47518;51.776;9.370;2023-06-14T06:02:43;100406.56;;;18.89;47.18
61618;BME280;47518;51.776;9.370;2023-06-14T06:05:21;100413.66;;;18.97;46.54
61618;BME280;47518;51.776;9.370;2023-06-14T06:07:57;100423.75;;;19.21;45.77
61618;BME280;47518;51.776;9.370;2023-06-14T06:25:26;100421.59;;;18.87;47.36
61618;BME280;47518;51.776;9.370;2023-06-14T06:28:08;100417.63;;;19.19;45.63
61618;BME280;47518;51.776;9.370;2023-06-14T06:30:44;100420.38;;;19.19;44.95
61618;BME280;47518;51.776;9.370;2023-06-14T06:33:09;100427.81;;;19.56;43.90
61618;BME280;47518;51.776;9.370;2023-06-14T06:35:44;100416.59;;;19.50;43.78
61618;BME280;47518;51.776;9.370;2023-06-14T06:38:10;100420.56;;;19.54;44.25
61618;BME280;47518;51.776;9.370;2023-06-14T06:40:41;100424.41;;;19.72;43.65
61618;BME280;47518;51.776;9.370;2023-06-14T06:43:13;100429.69;;;20.03;43.46
61618;BME280;47518;51.776;9.370;2023-06-14T06:45:42;100428.91;;;20.26;42.67
61618;BME280;47518;51.776;9.370;2023-06-14T06:48:08;100429.59;;;20.33;42.28
61618;BME280;47518;51.776;9.370;2023-06-14T06:50:35;100426.00;;;20.33;42.04
61618;BME280;47518;51.776;9.370;2023-06-14T06:53:10;100427.63;;;20.52;42.07
61618;BME280;47518;51.776;9.370;2023-06-14T06:55:35;100434.78;;;20.42;42.00
61618;BME280;47518;51.776;9.370;2023-06-14T06:58:04;100437.25;;;20.61;41.88
61618;BME280;47518;51.776;9.370;2023-06-14T07:00:30;100437.94;;;20.80;41.53
61618;BME280;47518;51.776;9.370;2023-06-14T07:03:15;100438.09;;;20.74;42.06
61618;BME280;47518;51.776;9.370;2023-06-14T07:05:52;100434.34;;;20.45;41.17
61618;BME280;47518;51.776;9.370;2023-06-14T07:08:26;100440.38;;;20.23;41.74
61618;BME280;47518;51.776;9.370;2023-06-14T07:11:04;100439.94;;;20.26;41.63
61618;BME280;47518;51.776;9.370;2023-06-14T07:13:30;100438.66;;;19.99;42.10
61618;BME280;47518;51.776;9.370;2023-06-14T07:16:00;100446.00;;;20.58;41.21
61618;BME280;47518;51.776;9.370;2023-06-14T07:18:41;100452.59;;;20.46;41.03
61618;BME280;47518;51.776;9.370;2023-06-14T07:21:09;100457.28;;;20.57;40.21
61618;BME280;47518;51.776;9.370;2023-06-14T07:23:50;100470.16;;;20.86;40.16
61618;BME280;47518;51.776;9.370;2023-06-14T07:26:24;100458.00;;;21.11;40.04
61618;BME280;47518;51.776;9.370;2023-06-14T07:28:50;100457.84;;;21.17;40.13
61618;BME280;47518;51.776;9.370;2023-06-14T07:31:17;100456.63;;;21.48;39.41
61618;BME280;47518;51.776;9.370;2023-06-14T07:33:52;100460.19;;;21.61;39.76
61618;BME280;47518;51.776;9.370;2023-06-14T07:36:18;100453.69;;;21.95;39.04
61618;BME280;47518;51.776;9.370;2023-06-14T07:38:53;100469.41;;;21.78;39.87
61618;BME280;47518;51.776;9.370;2023-06-14T07:41:42;100465.09;;;21.70;38.69
61618;BME280;47518;51.776;9.370;2023-06-14T07:44:20;100452.59;;;21.68;38.97
61618;BME280;47518;51.776;9.370;2023-06-14T07:46:45;100464.69;;;21.50;38.29
61618;BME280;47518;51.776;9.370;2023-06-14T07:49:17;100474.69;;;21.39;38.86
61618;BME280;47518;51.776;9.370;2023-06-14T07:51:45;100463.88;;;21.38;38.80
61618;BME280;47518;51.776;9.370;2023-06-14T07:54:12;100468.59;;;21.02;39.56
61618;BME280;47518;51.776;9.370;2023-06-14T07:56:41;100470.50;;;21.02;39.68
61618;BME280;47518;51.776;9.370;2023-06-14T07:59:13;100465.06;;;21.30;39.05
61618;BME280;47518;51.776;9.370;2023-06-14T08:01:42;100476.03;;;21.77;39.31
61618;BME280;47518;51.776;9.370;2023-06-14T08:04:15;100463.34;;;21.52;39.17
61618;BME280;47518;51.776;9.370;2023-06-14T08:07:16;100465.78;;;21.49;39.37
61618;BME280;47518;51.776;9.370;2023-06-14T08:09:45;100472.56;;;21.70;40.30
61618;BME280;47518;51.776;9.370;2023-06-14T08:12:11;100460.56;;;21.93;38.64
61618;BME280;47518;51.776;9.370;2023-06-14T08:15:01;100461.06;;;22.18;38.50
61618;BME280;47518;51.776;9.370;2023-06-14T08:17:27;100462.63;;;21.57;39.19
61618;BME280;47518;51.776;9.370;2023-06-14T08:19:59;100466.16;;;21.17;40.32
61618;BME280;47518;51.776;9.370;2023-06-14T08:22:24;100473.88;;;21.27;40.10
61618;BME280;47518;51.776;9.370;2023-06-14T08:25:04;100470.06;;;21.68;39.39
61618;BME280;47518;51.776;9.370;2023-06-14T08:27:36;100487.09;;;21.77;39.24
61618;BME280;47518;51.776;9.370;2023-06-14T08:30:01;100466.78;;;22.11;38.84
61618;BME280;47518;51.776;9.370;2023-06-14T08:32:50;100474.25;;;22.28;38.91
61618;BME280;47518;51.776;9.370;2023-06-14T08:35:17;100473.75;;;22.02;38.94
61618;BME280;47518;51.776;9.370;2023-06-14T08:37:43;100474.41;;;21.93;39.77
61618;BME280;47518;51.776;9.370;2023-06-14T08:43:18;100475.97;;;22.62;37.06
61618;BME280;47518;51.776;9.370;2023-06-14T08:46:06;100485.38;;;22.61;37.49
61618;BME280;47518;51.776;9.370;2023-06-14T08:48:41;100476.63;;;22.69;37.29
61618;BME280;47518;51.776;9.370;2023-06-14T08:51:21;100467.88;;;22.78;37.68
61618;BME280;47518;51.776;9.370;2023-06-14T08:54:06;100467.72;;;22.67;37.70
61618;BME280;47518;51.776;9.370;2023-06-14T08:56:37;100466.47;;;22.58;37.64
61618;BME280;47518;51.776;9.370;2023-06-14T08:59:06;100473.50;;;22.04;39.52
61618;BME280;47518;51.776;9.370;2023-06-14T09:01:57;100472.28;;;21.83;39.79
61618;BME280;47518;51.776;9.370;2023-06-14T09:08:03;100479.28;;;22.02;39.19
61618;BME280;47518;51.776;9.370;2023-06-14T09:10:34;100479.28;;;22.31;39.00
61618;BME280;47518;51.776;9.370;2023-06-14T09:13:09;100465.44;;;22.31;38.22
61618;BME280;47518;51.776;9.370;2023-06-14T09:15:34;100473.00;;;22.35;39.01
61618;BME280;47518;51.776;9.370;2023-06-14T09:18:01;100471.00;;;22.48;38.92
61618;BME280;47518;51.776;9.370;2023-06-14T09:20:30;100473.63;;;22.88;37.79
61618;BME280;47518;51.776;9.370;2023-06-14T09:22:56;100465.09;;;23.11;36.74
61618;BME280;47518;51.776;9.370;2023-06-14T09:25:22;100468.97;;;22.77;37.83
61618;BME280;47518;51.776;9.370;2023-06-14T09:27:51;100471.63;;;22.21;39.21
61618;BME280;47518;51.776;9.370;2023-06-14T09:30:25;100480.63;;;22.45;39.23
61618;BME280;47518;51.776;9.370;2023-06-14T09:32:58;100481.84;;;22.49;38.95
61618;BME280;47518;51.776;9.370;2023-06-14T09:35:24;100479.56;;;22.46;39.04
61618;BME280;47518;51.776;9.370;2023-06-14T09:37:52;100480.06;;;22.43;38.72
61618;BME280;47518;51.776;9.370;2023-06-14T09:40:24;100474.97;;;22.06;38.69
61618;BME280;47518;51.776;9.370;2023-06-14T09:42:53;100487.22;;;22.10;38.86
61618;BME280;47518;51.776;9.370;2023-06-14T09:45:20;100488.94;;;22.28;38.35
61618;BME280;47518;51.776;9.370;2023-06-14T09:47:49;100485.41;;;22.33;38.15
61618;BME280;47518;51.776;9.370;2023-06-14T09:50:15;100477.59;;;22.30;39.00
61618;BME280;47518;51.776;9.370;2023-06-14T09:52:46;100469.16;;;22.36;39.17
61618;BME280;47518;51.776;9.370;2023-06-14T09:55:19;100470.66;;;22.61;38.26
61618;BME280;47518;51.776;9.370;2023-06-14T09:57:47;100462.44;;;22.83;39.18
61618;BME280;47518;51.776;9.370;2023-06-14T10:00:14;100472.94;;;22.64;38.14
61618;BME280;47518;51.776;9.370;2023-06-14T10:02:42;100469.72;;;22.55;38.06
61618;BME280;47518;51.776;9.370;2023-06-14T10:05:25;100473.59;;;22.54;38.28
61618;BME280;47518;51.776;9.370;2023-06-14T10:08:04;100461.25;;;22.79;37.30
61618;BME280;47518;51.776;9.370;2023-06-14T10:10:33;100466.47;;;22.92;37.84
61618;BME280;47518;51.776;9.370;2023-06-14T10:13:05;100460.91;;;22.75;37.97
61618;BME280;47518;51.776;9.370;2023-06-14T10:15:41;100471.00;;;22.81;37.53
61618;BME280;47518;51.776;9.370;2023-06-14T10:18:17;100468.47;;;22.96;36.89
61618;BME280;47518;51.776;9.370;2023-06-14T10:34:00;100454.16;;;23.43;36.61
61618;BME280;47518;51.776;9.370;2023-06-14T10:36:28;100458.22;;;23.57;35.74
61618;BME280;47518;51.776;9.370;2023-06-14T10:41:52;100459.56;;;23.55;34.95
61618;BME280;47518;51.776;9.370;2023-06-14T10:47:48;100445.78;;;24.09;33.94
61618;BME280;47518;51.776;9.370;2023-06-14T10:50:17;100451.91;;;24.38;34.20
61618;BME280;47518;51.776;9.370;2023-06-14T10:52:45;100449.78;;;24.50;34.23
61618;BME280;47518;51.776;9.370;2023-06-14T10:55:14;100450.91;;;24.54;33.66
61618;BME280;47518;51.776;9.370;2023-06-14T10:57:49;100452.47;;;24.72;33.17
61618;BME280;47518;51.776;9.370;2023-06-14T11:00:17;100454.19;;;24.78;32.92
61618;BME280;47518;51.776;9.370;2023-06-14T11:05:59;100438.38;;;26.14;30.76
61618;BME280;47518;51.776;9.370;2023-06-14T11:21:51;100446.81;;;26.50;28.85
61618;BME280;47518;51.776;9.370;2023-06-14T11:24:17;100440.09;;;26.81;29.55
61618;BME280;47518;51.776;9.370;2023-06-14T11:26:42;100435.94;;;26.48;29.62
61618;BME280;47518;51.776;9.370;2023-06-14T11:29:08;100440.94;;;26.71;29.62
61618;BME280;47518;51.776;9.370;2023-06-14T11:31:34;100438.75;;;26.63;28.97
61618;BME280;47518;51.776;9.370;2023-06-14T11:34:00;100435.06;;;26.98;29.39
61618;BME280;47518;51.776;9.370;2023-06-14T11:36:36;100434.03;;;27.59;28.88
61618;BME280;47518;51.776;9.370;2023-06-14T11:39:04;100429.94;;;27.31;28.13
61618;BME280;47518;51.776;9.370;2023-06-14T11:44:20;100428.66;;;28.90;26.82
61618;BME280;47518;51.776;9.370;2023-06-14T11:46:45;100440.22;;;28.44;27.90
61618;BME280;47518;51.776;9.370;2023-06-14T11:49:11;100432.53;;;27.82;27.32
61618;BME280;47518;51.776;9.370;2023-06-14T11:51:36;100426.84;;;27.97;27.45
61618;BME280;47518;51.776;9.370;2023-06-14T11:54:03;100426.06;;;27.27;28.89
61618;BME280;47518;51.776;9.370;2023-06-14T11:56:29;100428.41;;;26.43;28.90
61618;BME280;47518;51.776;9.370;2023-06-14T11:58:55;100420.84;;;26.08;29.79
61618;BME280;47518;51.776;9.370;2023-06-14T12:01:22;100427.03;;;25.38;31.26
61618;BME280;47518;51.776;9.370;2023-06-14T12:03:49;100432.03;;;25.36;31.03
61618;BME280;47518;51.776;9.370;2023-06-14T12:06:16;100432.25;;;24.87;31.98
61618;BME280;47518;51.776;9.370;2023-06-14T12:08:43;100423.78;;;25.04;31.86
61618;BME280;47518;51.776;9.370;2023-06-14T12:11:12;100424.81;;;25.40;31.69
61618;BME280;47518;51.776;9.370;2023-06-14T12:13:39;100420.34;;;25.44;31.41
61618;BME280;47518;51.776;9.370;2023-06-14T12:16:10;100413.72;;;25.50;30.58
61618;BME280;47518;51.776;9.370;2023-06-14T12:18:38;100419.78;;;25.37;31.27
61618;BME280;47518;51.776;9.370;2023-06-14T12:21:07;100418.41;;;25.39;31.86
61618;BME280;47518;51.776;9.370;2023-06-14T12:23:43;100409.22;;;25.44;31.65
61618;BME280;47518;51.776;9.370;2023-06-14T12:26:08;100409.44;;;25.27;31.46
61618;BME280;47518;51.776;9.370;2023-06-14T12:28:33;100419.53;;;24.96;31.60
61618;BME280;47518;51.776;9.370;2023-06-14T12:30:59;100410.00;;;25.24;31.52
61618;BME280;47518;51.776;9.370;2023-06-14T12:33:24;100413.44;;;25.56;30.55
61618;BME280;47518;51.776;9.370;2023-06-14T12:35:50;100405.88;;;25.42;31.18
61618;BME280;47518;51.776;9.370;2023-06-14T12:38:16;100413.16;;;25.58;30.38
61618;BME280;47518;51.776;9.370;2023-06-14T12:40:45;100411.44;;;25.47;31.44
61618;BME280;47518;51.776;9.370;2023-06-14T12:43:10;100420.47;;;25.12;30.94
61618;BME280;47518;51.776;9.370;2023-06-14T12:45:35;100416.13;;;25.26;31.12
61618;BME280;47518;51.776;9.370;2023-06-14T12:48:04;100414.19;;;25.31;31.11
61618;BME280;47518;51.776;9.370;2023-06-14T12:50:29;100413.91;;;25.33;32.71
61618;BME280;47518;51.776;9.370;2023-06-14T12:52:55;100417.28;;;25.45;32.13
61618;BME280;47518;51.776;9.370;2023-06-14T12:55:21;100411.75;;;25.50;31.65
61618;BME280;47518;51.776;9.370;2023-06-14T12:57:46;100418.28;;;25.86;31.15
61618;BME280;47518;51.776;9.370;2023-06-14T13:00:15;100416.06;;;25.88;31.04
61618;BME280;47518;51.776;9.370;2023-06-14T13:02:40;100420.22;;;25.76;30.26
61618;BME280;47518;51.776;9.370;2023-06-14T13:05:06;100418.53;;;25.75;30.89
61618;BME280;47518;51.776;9.370;2023-06-14T13:07:32;100410.97;;;25.65;31.11
61618;BME280;47518;51.776;9.370;2023-06-14T13:09:57;100412.69;;;25.81;30.59
61618;BME280;47518;51.776;9.370;2023-06-14T13:12:23;100417.72;;;25.74;30.13
61618;BME280;47518;51.776;9.370;2023-06-14T13:14:49;100415.47;;;25.81;30.53
61618;BME280;47518;51.776;9.370;2023-06-14T13:17:14;100411.34;;;26.04;30.80
61618;BME280;47518;51.776;9.370;2023-06-14T13:19:40;100409.41;;;26.00;30.31
61618;BME280;47518;51.776;9.370;2023-06-14T13:22:07;100407.13;;;25.76;31.38
61618;BME280;47518;51.776;9.370;2023-06-14T13:24:34;100415.50;;;25.86;31.35
61618;BME280;47518;51.776;9.370;2023-06-14T13:27:00;100419.69;;;25.89;31.19
61618;BME280;47518;51.776;9.370;2023-06-14T13:29:25;100422.94;;;25.66;31.79
61618;BME280;47518;51.776;9.370;2023-06-14T13:31:52;100418.16;;;25.51;32.12
61618;BME280;47518;51.776;9.370;2023-06-14T13:34:18;100419.19;;;25.35;32.66
61618;BME280;47518;51.776;9.370;2023-06-14T13:36:43;100415.06;;;25.37;31.47
61618;BME280;47518;51.776;9.370;2023-06-14T13:39:09;100413.00;;;25.17;32.67
61618;BME280;47518;51.776;9.370;2023-06-14T13:41:35;100416.19;;;25.46;32.49
61618;BME280;47518;51.776;9.370;2023-06-14T13:44:01;100409.38;;;25.17;31.72
61618;BME280;47518;51.776;9.370;2023-06-14T13:46:31;100410.28;;;25.33;31.79
61618;BME280;47518;51.776;9.370;2023-06-14T13:48:57;100415.09;;;25.47;31.89
61618;BME280;47518;51.776;9.370;2023-06-14T13:51:23;100412.31;;;25.52;31.90
61618;BME280;47518;51.776;9.370;2023-06-14T13:53:49;100407.38;;;25.70;31.73
61618;BME280;47518;51.776;9.370;2023-06-14T13:56:16;100408.47;;;25.64;32.78
61618;BME280;47518;51.776;9.370;2023-06-14T13:58:44;100413.94;;;25.43;31.57